sensor_id;sensor_type;location;lat;lon;timestamp;P1;durP1;ratioP1;P2;durP2;ratioP2
53253;SDS011;39148;53.332;6.922;2023-04-25T00:01:32;13.30;;;2.88;;
53253;SDS011;39148;53.332;6.922;2023-04-25T00:04:01;14.88;;;2.53;;
53253;SDS011;39148;53.332;6.922;2023-04-25T00:06:28;12.57;;;2.55;;
53253;SDS011;39148;53.332;6.922;2023-04-25T00:08:55;15.05;;;2.75;;
53253;SDS011;39148;53.332;6.922;2023-04-25T00:11:21;13.60;;;3.00;;
53253;SDS011;39148;53.332;6.922;2023-04-25T00:13:48;12.10;;;2.40;;
53253;SDS011;39148;53.332;6.922;2023-04-25T00:16:15;13.30;;;2.88;;
53253;SDS011;39148;53.332;6.922;2023-04-25T00:18:42;12.38;;;2.33;;
53253;SDS011;39148;53.332;6.922;2023-04-25T00:21:08;14.82;;;3.22;;
53253;SDS011;39148;53.332;6.922;2023-04-25T00:23:34;15.95;;;2.65;;
53253;SDS011;39148;53.332;6.922;2023-04-25T00:26:01;11.90;;;2.65;;
53253;SDS011;39148;53.332;6.922;2023-04-25T00:28:27;12.38;;;2.70;;
53253;SDS011;39148;53.332;6.922;2023-04-25T00:30:53;17.83;;;2.83;;
53253;SDS011;39148;53.332;6.922;2023-04-25T00:33:19;11.07;;;1.92;;
53253;SDS011;39148;53.332;6.922;2023-04-25T00:35:46;11.52;;;2.10;;
53253;SDS011;39148;53.332;6.922;2023-04-25T00:38:12;9.98;;;2.38;;
53253;SDS011;39148;53.332;6.922;2023-04-25T00:40:37;12.68;;;2.45;;
53253;SDS011;39148;53.332;6.922;2023-04-25T00:43:03;8.73;;;1.92;;
53253;SDS011;39148;53.332;6.922;2023-04-25T00:45:30;13.27;;;2.40;;
53253;SDS011;39148;53.332;6.922;2023-04-25T00:47:56;8.52;;;2.58;;
53253;SDS011;39148;53.332;6.922;2023-04-25T00:50:23;13.68;;;2.83;;
53253;SDS011;39148;53.332;6.922;2023-04-25T00:52:49;11.57;;;2.15;;
53253;SDS011;39148;53.332;6.922;2023-04-25T00:55:15;12.52;;;2.42;;
53253;SDS011;39148;53.332;6.922;2023-04-25T00:57:42;8.52;;;1.92;;
53253;SDS011;39148;53.332;6.922;2023-04-25T01:00:08;10.93;;;2.15;;
53253;SDS011;39148;53.332;6.922;2023-04-25T01:02:36;8.10;;;2.00;;
53253;SDS011;39148;53.332;6.922;2023-04-25T01:05:02;9.18;;;1.92;;
53253;SDS011;39148;53.332;6.922;2023-04-25T01:07:29;10.35;;;1.83;;
53253;SDS011;39148;53.332;6.922;2023-04-25T01:09:55;12.05;;;2.30;;
53253;SDS011;39148;53.332;6.922;2023-04-25T01:12:21;9.43;;;1.88;;
53253;SDS011;39148;53.332;6.922;2023-04-25T01:14:48;10.50;;;1.83;;
53253;SDS011;39148;53.332;6.922;2023-04-25T01:17:13;7.60;;;2.30;;
53253;SDS011;39148;53.332;6.922;2023-04-25T01:19:40;9.90;;;1.55;;
53253;SDS011;39148;53.332;6.922;2023-04-25T01:22:05;10.00;;;1.90;;
53253;SDS011;39148;53.332;6.922;2023-04-25T01:24:32;11.38;;;2.15;;
53253;SDS011;39148;53.332;6.922;2023-04-25T01:26:59;9.77;;;2.17;;
53253;SDS011;39148;53.332;6.922;2023-04-25T01:29:26;12.23;;;2.30;;
53253;SDS011;39148;53.332;6.922;2023-04-25T01:31:53;9.85;;;1.85;;
53253;SDS011;39148;53.332;6.922;2023-04-25T01:34:19;10.98;;;2.00;;
53253;SDS011;39148;53.332;6.922;2023-04-25T01:36:45;12.63;;;2.17;;
53253;SDS011;39148;53.332;6.922;2023-04-25T01:39:12;6.47;;;1.70;;
53253;SDS011;39148;53.332;6.922;2023-04-25T01:41:38;8.20;;;1.85;;
53253;SDS011;39148;53.332;6.922;2023-04-25T01:44:04;9.73;;;1.80;;
53253;SDS011;39148;53.332;6.922;2023-04-25T01:46:30;9.98;;;1.60;;
53253;SDS011;39148;53.332;6.922;2023-04-25T01:48:56;10.65;;;1.73;;
53253;SDS011;39148;53.332;6.922;2023-04-25T01:51:22;11.98;;;1.77;;
53253;SDS011;39148;53.332;6.922;2023-04-25T01:53:49;8.10;;;1.52;;
53253;SDS011;39148;53.332;6.922;2023-04-25T01:56:15;11.07;;;1.90;;
53253;SDS011;39148;53.332;6.922;2023-04-25T01:58:41;6.85;;;1.70;;
53253;SDS011;39148;53.332;6.922;2023-04-25T02:01:07;9.15;;;2.05;;
53253;SDS011;39148;53.332;6.922;2023-04-25T02:03:33;9.25;;;1.90;;
53253;SDS011;39148;53.332;6.922;2023-04-25T02:06:00;7.28;;;1.30;;
53253;SDS011;39148;53.332;6.922;2023-04-25T02:08:26;9.55;;;1.70;;
53253;SDS011;39148;53.332;6.922;2023-04-25T02:10:52;10.23;;;1.90;;
53253;SDS011;39148;53.332;6.922;2023-04-25T02:13:18;10.23;;;2.00;;
53253;SDS011;39148;53.332;6.922;2023-04-25T02:15:44;11.70;;;2.05;;
53253;SDS011;39148;53.332;6.922;2023-04-25T02:18:10;7.55;;;1.40;;
53253;SDS011;39148;53.332;6.922;2023-04-25T02:20:36;10.05;;;1.77;;
53253;SDS011;39148;53.332;6.922;2023-04-25T02:23:02;9.52;;;1.70;;
53253;SDS011;39148;53.332;6.922;2023-04-25T02:25:29;10.13;;;2.03;;
53253;SDS011;39148;53.332;6.922;2023-04-25T02:27:54;9.95;;;1.63;;
53253;SDS011;39148;53.332;6.922;2023-04-25T02:30:20;8.93;;;1.42;;
53253;SDS011;39148;53.332;6.922;2023-04-25T02:32:47;8.00;;;1.63;;
53253;SDS011;39148;53.332;6.922;2023-04-25T02:35:13;9.43;;;1.77;;
53253;SDS011;39148;53.332;6.922;2023-04-25T02:37:39;10.10;;;1.38;;
53253;SDS011;39148;53.332;6.922;2023-04-25T02:40:05;9.38;;;1.98;;
53253;SDS011;39148;53.332;6.922;2023-04-25T02:42:32;7.13;;;1.30;;
53253;SDS011;39148;53.332;6.922;2023-04-25T02:44:57;10.90;;;1.55;;
53253;SDS011;39148;53.332;6.922;2023-04-25T02:47:23;8.90;;;1.50;;
53253;SDS011;39148;53.332;6.922;2023-04-25T02:49:49;8.05;;;1.50;;
53253;SDS011;39148;53.332;6.922;2023-04-25T02:52:15;7.82;;;1.65;;
53253;SDS011;39148;53.332;6.922;2023-04-25T02:54:42;9.00;;;1.67;;
53253;SDS011;39148;53.332;6.922;2023-04-25T02:57:07;6.47;;;1.25;;
53253;SDS011;39148;53.332;6.922;2023-04-25T02:59:33;6.95;;;1.35;;
53253;SDS011;39148;53.332;6.922;2023-04-25T03:01:59;9.90;;;1.42;;
53253;SDS011;39148;53.332;6.922;2023-04-25T03:04:26;7.28;;;1.52;;
53253;SDS011;39148;53.332;6.922;2023-04-25T03:06:52;9.30;;;1.58;;
53253;SDS011;39148;53.332;6.922;2023-04-25T03:09:18;8.60;;;1.35;;
53253;SDS011;39148;53.332;6.922;2023-04-25T03:11:44;6.68;;;1.30;;
53253;SDS011;39148;53.332;6.922;2023-04-25T03:14:11;9.18;;;1.42;;
53253;SDS011;39148;53.332;6.922;2023-04-25T03:16:38;7.97;;;1.45;;
53253;SDS011;39148;53.332;6.922;2023-04-25T03:19:03;8.77;;;1.50;;
53253;SDS011;39148;53.332;6.922;2023-04-25T03:21:30;8.48;;;1.00;;
53253;SDS011;39148;53.332;6.922;2023-04-25T03:23:57;6.50;;;1.20;;
53253;SDS011;39148;53.332;6.922;2023-04-25T03:26:23;6.03;;;1.23;;
53253;SDS011;39148;53.332;6.922;2023-04-25T03:28:49;6.82;;;1.45;;
53253;SDS011;39148;53.332;6.922;2023-04-25T03:31:15;7.35;;;0.95;;
53253;SDS011;39148;53.332;6.922;2023-04-25T03:33:41;10.38;;;1.50;;
53253;SDS011;39148;53.332;6.922;2023-04-25T03:36:07;7.88;;;1.90;;
53253;SDS011;39148;53.332;6.922;2023-04-25T03:38:33;6.10;;;1.08;;
53253;SDS011;39148;53.332;6.922;2023-04-25T03:41:00;8.45;;;1.17;;
53253;SDS011;39148;53.332;6.922;2023-04-25T03:43:26;8.55;;;1.92;;
53253;SDS011;39148;53.332;6.922;2023-04-25T03:45:52;6.88;;;1.02;;
53253;SDS011;39148;53.332;6.922;2023-04-25T03:48:18;8.23;;;1.40;;
53253;SDS011;39148;53.332;6.922;2023-04-25T03:50:49;7.38;;;1.40;;
53253;SDS011;39148;53.332;6.922;2023-04-25T03:53:16;7.43;;;1.00;;
53253;SDS011;39148;53.332;6.922;2023-04-25T03:55:42;6.93;;;1.02;;
53253;SDS011;39148;53.332;6.922;2023-04-25T03:58:08;6.65;;;1.58;;
53253;SDS011;39148;53.332;6.922;2023-04-25T04:00:34;7.20;;;1.50;;
53253;SDS011;39148;53.332;6.922;2023-04-25T04:03:00;7.00;;;1.40;;
53253;SDS011;39148;53.332;6.922;2023-04-25T04:05:26;6.00;;;1.23;;
53253;SDS011;39148;53.332;6.922;2023-04-25T04:07:53;7.43;;;1.60;;
53253;SDS011;39148;53.332;6.922;2023-04-25T04:10:19;9.05;;;1.23;;
53253;SDS011;39148;53.332;6.922;2023-04-25T04:12:45;6.75;;;1.42;;
53253;SDS011;39148;53.332;6.922;2023-04-25T04:15:11;6.63;;;1.30;;
53253;SDS011;39148;53.332;6.922;2023-04-25T04:17:37;6.38;;;1.30;;
53253;SDS011;39148;53.332;6.922;2023-04-25T04:20:03;6.63;;;1.08;;
53253;SDS011;39148;53.332;6.922;2023-04-25T04:22:31;7.45;;;1.55;;
53253;SDS011;39148;53.332;6.922;2023-04-25T04:24:57;8.20;;;1.27;;
53253;SDS011;39148;53.332;6.922;2023-04-25T04:27:23;7.13;;;1.52;;
53253;SDS011;39148;53.332;6.922;2023-04-25T04:29:49;6.78;;;1.30;;
53253;SDS011;39148;53.332;6.922;2023-04-25T04:32:17;5.72;;;1.27;;
53253;SDS011;39148;53.332;6.922;2023-04-25T04:34:43;8.15;;;1.42;;
53253;SDS011;39148;53.332;6.922;2023-04-25T04:37:09;7.47;;;1.40;;
53253;SDS011;39148;53.332;6.922;2023-04-25T04:39:38;7.63;;;1.20;;
53253;SDS011;39148;53.332;6.922;2023-04-25T04:42:04;10.00;;;1.33;;
53253;SDS011;39148;53.332;6.922;2023-04-25T04:44:30;8.57;;;1.27;;
53253;SDS011;39148;53.332;6.922;2023-04-25T04:46:58;4.18;;;0.82;;
53253;SDS011;39148;53.332;6.922;2023-04-25T04:49:24;4.88;;;1.08;;
53253;SDS011;39148;53.332;6.922;2023-04-25T04:51:50;9.38;;;1.42;;
53253;SDS011;39148;53.332;6.922;2023-04-25T04:54:16;4.95;;;0.93;;
53253;SDS011;39148;53.332;6.922;2023-04-25T04:56:42;6.60;;;1.10;;
53253;SDS011;39148;53.332;6.922;2023-04-25T04:59:08;5.15;;;1.05;;
53253;SDS011;39148;53.332;6.922;2023-04-25T05:01:36;4.60;;;0.95;;
53253;SDS011;39148;53.332;6.922;2023-04-25T05:04:02;4.57;;;0.90;;
53253;SDS011;39148;53.332;6.922;2023-04-25T05:06:29;7.05;;;1.20;;
53253;SDS011;39148;53.332;6.922;2023-04-25T05:08:56;7.07;;;1.10;;
53253;SDS011;39148;53.332;6.922;2023-04-25T05:11:22;5.03;;;1.00;;
53253;SDS011;39148;53.332;6.922;2023-04-25T05:13:49;5.35;;;1.10;;
53253;SDS011;39148;53.332;6.922;2023-04-25T05:16:15;6.63;;;0.93;;
53253;SDS011;39148;53.332;6.922;2023-04-25T05:18:41;7.28;;;1.17;;
53253;SDS011;39148;53.332;6.922;2023-04-25T05:21:07;5.28;;;1.48;;
53253;SDS011;39148;53.332;6.922;2023-04-25T05:23:33;5.38;;;1.10;;
53253;SDS011;39148;53.332;6.922;2023-04-25T05:25:59;6.68;;;1.00;;
53253;SDS011;39148;53.332;6.922;2023-04-25T05:28:26;7.78;;;1.20;;
53253;SDS011;39148;53.332;6.922;2023-04-25T05:30:52;6.38;;;1.00;;
53253;SDS011;39148;53.332;6.922;2023-04-25T05:33:18;7.03;;;1.20;;
53253;SDS011;39148;53.332;6.922;2023-04-25T05:35:44;4.18;;;0.93;;
53253;SDS011;39148;53.332;6.922;2023-04-25T05:38:10;7.80;;;1.70;;
53253;SDS011;39148;53.332;6.922;2023-04-25T05:40:36;8.88;;;1.20;;
53253;SDS011;39148;53.332;6.922;2023-04-25T05:43:02;7.30;;;1.33;;
53253;SDS011;39148;53.332;6.922;2023-04-25T05:45:28;6.07;;;0.90;;
53253;SDS011;39148;53.332;6.922;2023-04-25T05:47:54;5.78;;;1.13;;
53253;SDS011;39148;53.332;6.922;2023-04-25T05:50:20;6.13;;;1.13;;
53253;SDS011;39148;53.332;6.922;2023-04-25T05:52:46;4.85;;;0.82;;
53253;SDS011;39148;53.332;6.922;2023-04-25T05:55:12;7.40;;;1.00;;
53253;SDS011;39148;53.332;6.922;2023-04-25T05:57:39;6.15;;;1.10;;
53253;SDS011;39148;53.332;6.922;2023-04-25T06:00:11;7.65;;;1.10;;
53253;SDS011;39148;53.332;6.922;2023-04-25T06:02:37;6.28;;;1.00;;
53253;SDS011;39148;53.332;6.922;2023-04-25T06:05:03;8.18;;;1.33;;
53253;SDS011;39148;53.332;6.922;2023-04-25T06:07:30;6.68;;;1.10;;
53253;SDS011;39148;53.332;6.922;2023-04-25T06:09:56;7.03;;;1.33;;
53253;SDS011;39148;53.332;6.922;2023-04-25T06:12:22;5.68;;;1.25;;
53253;SDS011;39148;53.332;6.922;2023-04-25T06:14:48;7.22;;;1.15;;
53253;SDS011;39148;53.332;6.922;2023-04-25T06:17:14;5.65;;;0.90;;
53253;SDS011;39148;53.332;6.922;2023-04-25T06:19:40;9.05;;;1.50;;
53253;SDS011;39148;53.332;6.922;2023-04-25T06:22:06;9.68;;;0.82;;
53253;SDS011;39148;53.332;6.922;2023-04-25T06:24:33;6.25;;;0.80;;
53253;SDS011;39148;53.332;6.922;2023-04-25T06:27:00;7.03;;;1.10;;
53253;SDS011;39148;53.332;6.922;2023-04-25T06:29:27;7.20;;;0.80;;
53253;SDS011;39148;53.332;6.922;2023-04-25T06:31:53;7.00;;;0.90;;
53253;SDS011;39148;53.332;6.922;2023-04-25T06:34:19;8.20;;;1.10;;
53253;SDS011;39148;53.332;6.922;2023-04-25T06:36:45;9.38;;;1.30;;
53253;SDS011;39148;53.332;6.922;2023-04-25T06:39:11;7.35;;;1.00;;
53253;SDS011;39148;53.332;6.922;2023-04-25T06:41:37;5.10;;;0.90;;
53253;SDS011;39148;53.332;6.922;2023-04-25T06:44:03;8.07;;;0.98;;
53253;SDS011;39148;53.332;6.922;2023-04-25T06:46:29;6.25;;;1.65;;
53253;SDS011;39148;53.332;6.922;2023-04-25T06:48:55;5.57;;;0.90;;
53253;SDS011;39148;53.332;6.922;2023-04-25T06:51:21;4.35;;;0.73;;
53253;SDS011;39148;53.332;6.922;2023-04-25T06:53:49;8.52;;;1.25;;
53253;SDS011;39148;53.332;6.922;2023-04-25T06:56:15;7.97;;;1.30;;
53253;SDS011;39148;53.332;6.922;2023-04-25T06:58:41;8.18;;;1.42;;
53253;SDS011;39148;53.332;6.922;2023-04-25T07:01:08;8.55;;;1.10;;
53253;SDS011;39148;53.332;6.922;2023-04-25T07:03:34;8.00;;;1.10;;
53253;SDS011;39148;53.332;6.922;2023-04-25T07:06:00;6.47;;;0.98;;
53253;SDS011;39148;53.332;6.922;2023-04-25T07:08:26;4.63;;;0.70;;
53253;SDS011;39148;53.332;6.922;2023-04-25T07:10:52;4.50;;;1.00;;
53253;SDS011;39148;53.332;6.922;2023-04-25T07:13:18;5.57;;;1.20;;
53253;SDS011;39148;53.332;6.922;2023-04-25T07:15:44;7.25;;;1.30;;
53253;SDS011;39148;53.332;6.922;2023-04-25T07:18:12;6.22;;;0.95;;
53253;SDS011;39148;53.332;6.922;2023-04-25T07:20:38;6.75;;;0.88;;
53253;SDS011;39148;53.332;6.922;2023-04-25T07:23:04;7.85;;;1.17;;
53253;SDS011;39148;53.332;6.922;2023-04-25T07:25:31;6.43;;;1.23;;
53253;SDS011;39148;53.332;6.922;2023-04-25T07:27:57;5.70;;;0.77;;
53253;SDS011;39148;53.332;6.922;2023-04-25T07:30:23;5.88;;;0.90;;
53253;SDS011;39148;53.332;6.922;2023-04-25T07:32:49;3.83;;;0.70;;
53253;SDS011;39148;53.332;6.922;2023-04-25T07:35:16;3.45;;;0.70;;
53253;SDS011;39148;53.332;6.922;2023-04-25T07:37:42;5.95;;;1.05;;
53253;SDS011;39148;53.332;6.922;2023-04-25T07:40:08;6.03;;;0.80;;
53253;SDS011;39148;53.332;6.922;2023-04-25T07:42:34;5.85;;;1.20;;
53253;SDS011;39148;53.332;6.922;2023-04-25T07:45:01;3.60;;;0.60;;
53253;SDS011;39148;53.332;6.922;2023-04-25T07:47:28;7.95;;;1.20;;
53253;SDS011;39148;53.332;6.922;2023-04-25T07:49:54;7.00;;;1.15;;
53253;SDS011;39148;53.332;6.922;2023-04-25T07:52:21;7.45;;;1.23;;
53253;SDS011;39148;53.332;6.922;2023-04-25T07:54:47;7.97;;;0.82;;
53253;SDS011;39148;53.332;6.922;2023-04-25T07:57:13;4.72;;;1.00;;
53253;SDS011;39148;53.332;6.922;2023-04-25T07:59:39;5.18;;;0.77;;
53253;SDS011;39148;53.332;6.922;2023-04-25T08:02:05;6.38;;;0.82;;
53253;SDS011;39148;53.332;6.922;2023-04-25T08:04:31;7.47;;;0.75;;
53253;SDS011;39148;53.332;6.922;2023-04-25T08:06:57;8.68;;;1.10;;
53253;SDS011;39148;53.332;6.922;2023-04-25T08:09:23;6.47;;;1.02;;
53253;SDS011;39148;53.332;6.922;2023-04-25T08:11:49;6.60;;;0.88;;
53253;SDS011;39148;53.332;6.922;2023-04-25T08:14:15;6.15;;;0.98;;
53253;SDS011;39148;53.332;6.922;2023-04-25T08:16:41;7.22;;;1.30;;
53253;SDS011;39148;53.332;6.922;2023-04-25T08:19:07;5.40;;;0.80;;
53253;SDS011;39148;53.332;6.922;2023-04-25T08:21:34;8.13;;;1.08;;
53253;SDS011;39148;53.332;6.922;2023-04-25T08:24:00;8.13;;;1.05;;
53253;SDS011;39148;53.332;6.922;2023-04-25T08:26:26;6.60;;;1.05;;
53253;SDS011;39148;53.332;6.922;2023-04-25T08:28:52;6.07;;;0.80;;
53253;SDS011;39148;53.332;6.922;2023-04-25T08:31:18;8.80;;;1.10;;
53253;SDS011;39148;53.332;6.922;2023-04-25T08:33:44;5.65;;;1.05;;
53253;SDS011;39148;53.332;6.922;2023-04-25T08:36:10;4.95;;;0.80;;
53253;SDS011;39148;53.332;6.922;2023-04-25T08:38:36;5.88;;;1.02;;
53253;SDS011;39148;53.332;6.922;2023-04-25T08:41:03;7.75;;;1.05;;
53253;SDS011;39148;53.332;6.922;2023-04-25T08:43:29;6.25;;;0.80;;
53253;SDS011;39148;53.332;6.922;2023-04-25T08:45:59;6.85;;;1.20;;
53253;SDS011;39148;53.332;6.922;2023-04-25T08:48:28;5.50;;;1.02;;
53253;SDS011;39148;53.332;6.922;2023-04-25T08:50:55;5.13;;;0.77;;
53253;SDS011;39148;53.332;6.922;2023-04-25T08:53:22;4.57;;;0.85;;
53253;SDS011;39148;53.332;6.922;2023-04-25T08:55:51;5.72;;;1.08;;
53253;SDS011;39148;53.332;6.922;2023-04-25T08:58:19;6.47;;;0.90;;
53253;SDS011;39148;53.332;6.922;2023-04-25T09:00:46;7.25;;;1.05;;
53253;SDS011;39148;53.332;6.922;2023-04-25T09:03:13;9.27;;;1.45;;
53253;SDS011;39148;53.332;6.922;2023-04-25T09:05:40;8.60;;;1.20;;
53253;SDS011;39148;53.332;6.922;2023-04-25T09:08:06;7.25;;;1.58;;
53253;SDS011;39148;53.332;6.922;2023-04-25T09:10:33;4.68;;;0.82;;
53253;SDS011;39148;53.332;6.922;2023-04-25T09:13:05;5.57;;;0.90;;
53253;SDS011;39148;53.332;6.922;2023-04-25T09:15:34;7.80;;;1.30;;
53253;SDS011;39148;53.332;6.922;2023-04-25T09:18:12;4.18;;;0.80;;
53253;SDS011;39148;53.332;6.922;2023-04-25T09:20:41;6.78;;;0.93;;
53253;SDS011;39148;53.332;6.922;2023-04-25T09:23:08;6.32;;;1.10;;
53253;SDS011;39148;53.332;6.922;2023-04-25T09:25:34;6.57;;;1.00;;
53253;SDS011;39148;53.332;6.922;2023-04-25T09:28:04;7.35;;;1.10;;
53253;SDS011;39148;53.332;6.922;2023-04-25T09:30:31;5.93;;;0.93;;
53253;SDS011;39148;53.332;6.922;2023-04-25T09:32:57;8.20;;;1.60;;
53253;SDS011;39148;53.332;6.922;2023-04-25T09:35:29;6.03;;;1.00;;
53253;SDS011;39148;53.332;6.922;2023-04-25T09:40:26;7.85;;;1.45;;
53253;SDS011;39148;53.332;6.922;2023-04-25T09:42:52;5.47;;;0.90;;
53253;SDS011;39148;53.332;6.922;2023-04-25T09:45:18;5.30;;;1.05;;
53253;SDS011;39148;53.332;6.922;2023-04-25T09:47:44;7.57;;;1.25;;
53253;SDS011;39148;53.332;6.922;2023-04-25T09:50:14;7.10;;;1.15;;
53253;SDS011;39148;53.332;6.922;2023-04-25T09:52:40;6.05;;;1.35;;
53253;SDS011;39148;53.332;6.922;2023-04-25T09:55:07;6.90;;;1.00;;
53253;SDS011;39148;53.332;6.922;2023-04-25T09:57:33;6.53;;;1.02;;
53253;SDS011;39148;53.332;6.922;2023-04-25T10:00:00;5.90;;;1.17;;
53253;SDS011;39148;53.332;6.922;2023-04-25T10:02:27;8.65;;;1.20;;
53253;SDS011;39148;53.332;6.922;2023-04-25T10:04:53;4.72;;;0.95;;
53253;SDS011;39148;53.332;6.922;2023-04-25T10:07:23;5.95;;;1.10;;
53253;SDS011;39148;53.332;6.922;2023-04-25T10:09:52;5.07;;;0.90;;
53253;SDS011;39148;53.332;6.922;2023-04-25T10:12:25;7.15;;;0.90;;
53253;SDS011;39148;53.332;6.922;2023-04-25T10:14:52;7.95;;;0.98;;
53253;SDS011;39148;53.332;6.922;2023-04-25T10:17:18;6.80;;;1.15;;
53253;SDS011;39148;53.332;6.922;2023-04-25T10:19:46;6.10;;;0.90;;
53253;SDS011;39148;53.332;6.922;2023-04-25T10:22:16;5.22;;;0.90;;
53253;SDS011;39148;53.332;6.922;2023-04-25T10:24:43;6.13;;;0.95;;
53253;SDS011;39148;53.332;6.922;2023-04-25T10:27:11;4.72;;;0.93;;
53253;SDS011;39148;53.332;6.922;2023-04-25T10:29:38;6.60;;;1.15;;
53253;SDS011;39148;53.332;6.922;2023-04-25T10:32:04;7.13;;;1.08;;
53253;SDS011;39148;53.332;6.922;2023-04-25T10:34:40;8.30;;;1.10;;
53253;SDS011;39148;53.332;6.922;2023-04-25T10:37:09;5.55;;;1.02;;
53253;SDS011;39148;53.332;6.922;2023-04-25T10:39:37;6.88;;;0.98;;
53253;SDS011;39148;53.332;6.922;2023-04-25T10:42:04;8.00;;;1.20;;
53253;SDS011;39148;53.332;6.922;2023-04-25T10:44:31;5.38;;;0.90;;
53253;SDS011;39148;53.332;6.922;2023-04-25T10:46:58;6.30;;;0.93;;
53253;SDS011;39148;53.332;6.922;2023-04-25T10:49:31;6.90;;;0.77;;
53253;SDS011;39148;53.332;6.922;2023-04-25T10:52:17;6.97;;;1.02;;
53253;SDS011;39148;53.332;6.922;2023-04-25T10:54:54;3.95;;;0.60;;
53253;SDS011;39148;53.332;6.922;2023-04-25T10:57:30;5.50;;;0.93;;
53253;SDS011;39148;53.332;6.922;2023-04-25T11:00:15;3.95;;;0.85;;
53253;SDS011;39148;53.332;6.922;2023-04-25T11:02:42;5.15;;;0.70;;
53253;SDS011;39148;53.332;6.922;2023-04-25T11:05:10;4.30;;;0.70;;
53253;SDS011;39148;53.332;6.922;2023-04-25T11:07:52;5.43;;;1.55;;
53253;SDS011;39148;53.332;6.922;2023-04-25T11:10:24;5.30;;;0.82;;
53253;SDS011;39148;53.332;6.922;2023-04-25T11:12:51;4.00;;;0.73;;
53253;SDS011;39148;53.332;6.922;2023-04-25T11:15:17;6.45;;;0.90;;
53253;SDS011;39148;53.332;6.922;2023-04-25T11:17:43;6.10;;;1.30;;
53253;SDS011;39148;53.332;6.922;2023-04-25T11:20:11;7.82;;;1.00;;
53253;SDS011;39148;53.332;6.922;2023-04-25T11:22:40;6.93;;;0.98;;
53253;SDS011;39148;53.332;6.922;2023-04-25T11:25:06;5.55;;;0.90;;
53253;SDS011;39148;53.332;6.922;2023-04-25T11:27:33;4.85;;;0.82;;
53253;SDS011;39148;53.332;6.922;2023-04-25T11:30:09;8.38;;;1.23;;
53253;SDS011;39148;53.332;6.922;2023-04-25T11:32:35;4.63;;;0.75;;
53253;SDS011;39148;53.332;6.922;2023-04-25T11:35:01;5.20;;;0.98;;
53253;SDS011;39148;53.332;6.922;2023-04-25T11:37:27;6.72;;;1.30;;
53253;SDS011;39148;53.332;6.922;2023-04-25T11:39:54;5.82;;;0.95;;
53253;SDS011;39148;53.332;6.922;2023-04-25T11:42:20;7.30;;;1.02;;
53253;SDS011;39148;53.332;6.922;2023-04-25T11:44:46;6.75;;;1.13;;
53253;SDS011;39148;53.332;6.922;2023-04-25T11:47:12;7.03;;;0.93;;
53253;SDS011;39148;53.332;6.922;2023-04-25T11:49:38;5.05;;;0.82;;
53253;SDS011;39148;53.332;6.922;2023-04-25T11:52:06;5.88;;;1.20;;
53253;SDS011;39148;53.332;6.922;2023-04-25T11:54:34;6.18;;;0.82;;
53253;SDS011;39148;53.332;6.922;2023-04-25T11:57:01;5.25;;;0.90;;
53253;SDS011;39148;53.332;6.922;2023-04-25T11:59:27;7.22;;;1.05;;
53253;SDS011;39148;53.332;6.922;2023-04-25T12:01:53;7.60;;;1.35;;
53253;SDS011;39148;53.332;6.922;2023-04-25T12:04:22;4.25;;;0.88;;
53253;SDS011;39148;53.332;6.922;2023-04-25T12:06:49;6.40;;;1.00;;
53253;SDS011;39148;53.332;6.922;2023-04-25T12:09:18;4.35;;;0.98;;
53253;SDS011;39148;53.332;6.922;2023-04-25T12:11:57;8.23;;;1.10;;
53253;SDS011;39148;53.332;6.922;2023-04-25T12:14:24;6.05;;;0.98;;
53253;SDS011;39148;53.332;6.922;2023-04-25T12:16:52;5.38;;;1.10;;
53253;SDS011;39148;53.332;6.922;2023-04-25T12:19:19;6.72;;;1.00;;
53253;SDS011;39148;53.332;6.922;2023-04-25T12:21:46;5.18;;;1.30;;
53253;SDS011;39148;53.332;6.922;2023-04-25T12:24:14;7.07;;;1.38;;
53253;SDS011;39148;53.332;6.922;2023-04-25T12:26:50;5.68;;;0.90;;
53253;SDS011;39148;53.332;6.922;2023-04-25T12:29:17;4.47;;;0.77;;
53253;SDS011;39148;53.332;6.922;2023-04-25T12:31:43;5.30;;;1.00;;
53253;SDS011;39148;53.332;6.922;2023-04-25T12:34:10;7.97;;;1.02;;
53253;SDS011;39148;53.332;6.922;2023-04-25T12:36:37;6.57;;;1.02;;
53253;SDS011;39148;53.332;6.922;2023-04-25T12:39:03;5.60;;;1.27;;
53253;SDS011;39148;53.332;6.922;2023-04-25T12:41:30;6.28;;;0.85;;
53253;SDS011;39148;53.332;6.922;2023-04-25T12:43:56;6.47;;;1.08;;
53253;SDS011;39148;53.332;6.922;2023-04-25T12:46:22;5.97;;;1.10;;
53253;SDS011;39148;53.332;6.922;2023-04-25T12:48:48;5.90;;;1.10;;
53253;SDS011;39148;53.332;6.922;2023-04-25T12:51:14;7.78;;;1.23;;
53253;SDS011;39148;53.332;6.922;2023-04-25T12:53:40;4.40;;;0.93;;
53253;SDS011;39148;53.332;6.922;2023-04-25T12:56:09;6.20;;;1.10;;
53253;SDS011;39148;53.332;6.922;2023-04-25T12:58:36;5.03;;;0.88;;
53253;SDS011;39148;53.332;6.922;2023-04-25T13:01:02;5.22;;;1.00;;
53253;SDS011;39148;53.332;6.922;2023-04-25T13:03:28;8.07;;;1.38;;
53253;SDS011;39148;53.332;6.922;2023-04-25T13:05:54;7.22;;;1.00;;
53253;SDS011;39148;53.332;6.922;2023-04-25T13:08:20;4.35;;;0.77;;
53253;SDS011;39148;53.332;6.922;2023-04-25T13:10:50;3.55;;;0.65;;
53253;SDS011;39148;53.332;6.922;2023-04-25T13:13:15;6.13;;;1.00;;
53253;SDS011;39148;53.332;6.922;2023-04-25T13:15:41;5.35;;;1.10;;
53253;SDS011;39148;53.332;6.922;2023-04-25T13:18:07;5.72;;;0.75;;
53253;SDS011;39148;53.332;6.922;2023-04-25T13:20:34;5.90;;;0.98;;
53253;SDS011;39148;53.332;6.922;2023-04-25T13:23:00;5.63;;;0.80;;
53253;SDS011;39148;53.332;6.922;2023-04-25T13:25:26;5.30;;;0.90;;
53253;SDS011;39148;53.332;6.922;2023-04-25T13:27:52;4.93;;;0.80;;
53253;SDS011;39148;53.332;6.922;2023-04-25T13:30:18;6.13;;;1.20;;
53253;SDS011;39148;53.332;6.922;2023-04-25T13:32:44;4.00;;;0.80;;
53253;SDS011;39148;53.332;6.922;2023-04-25T13:35:11;5.65;;;0.90;;
53253;SDS011;39148;53.332;6.922;2023-04-25T13:37:38;5.88;;;1.23;;
53253;SDS011;39148;53.332;6.922;2023-04-25T13:40:05;5.22;;;1.23;;
53253;SDS011;39148;53.332;6.922;2023-04-25T13:42:34;4.22;;;0.90;;
53253;SDS011;39148;53.332;6.922;2023-04-25T13:45:01;6.15;;;1.17;;
53253;SDS011;39148;53.332;6.922;2023-04-25T13:47:29;6.10;;;1.00;;
53253;SDS011;39148;53.332;6.922;2023-04-25T13:49:55;7.53;;;1.00;;
53253;SDS011;39148;53.332;6.922;2023-04-25T13:52:21;3.30;;;0.63;;
53253;SDS011;39148;53.332;6.922;2023-04-25T13:54:49;6.15;;;0.95;;
53253;SDS011;39148;53.332;6.922;2023-04-25T13:57:16;6.20;;;0.93;;
53253;SDS011;39148;53.332;6.922;2023-04-25T13:59:42;6.10;;;1.13;;
53253;SDS011;39148;53.332;6.922;2023-04-25T14:02:08;5.35;;;0.82;;
53253;SDS011;39148;53.332;6.922;2023-04-25T14:04:34;6.13;;;1.40;;
53253;SDS011;39148;53.332;6.922;2023-04-25T14:07:00;5.47;;;1.08;;
53253;SDS011;39148;53.332;6.922;2023-04-25T14:09:27;3.97;;;0.73;;
53253;SDS011;39148;53.332;6.922;2023-04-25T14:11:53;6.60;;;0.80;;
53253;SDS011;39148;53.332;6.922;2023-04-25T14:14:20;8.50;;;1.02;;
53253;SDS011;39148;53.332;6.922;2023-04-25T14:16:47;3.28;;;0.63;;
53253;SDS011;39148;53.332;6.922;2023-04-25T14:19:13;6.00;;;0.90;;
53253;SDS011;39148;53.332;6.922;2023-04-25T14:21:39;3.75;;;0.70;;
53253;SDS011;39148;53.332;6.922;2023-04-25T14:24:05;5.50;;;0.98;;
53253;SDS011;39148;53.332;6.922;2023-04-25T14:26:33;3.20;;;0.70;;
53253;SDS011;39148;53.332;6.922;2023-04-25T14:29:05;5.97;;;1.10;;
53253;SDS011;39148;53.332;6.922;2023-04-25T14:31:33;4.85;;;0.80;;
53253;SDS011;39148;53.332;6.922;2023-04-25T14:34:00;6.22;;;0.88;;
53253;SDS011;39148;53.332;6.922;2023-04-25T14:36:27;3.67;;;0.70;;
53253;SDS011;39148;53.332;6.922;2023-04-25T14:38:54;6.00;;;1.00;;
53253;SDS011;39148;53.332;6.922;2023-04-25T14:41:20;6.38;;;1.02;;
53253;SDS011;39148;53.332;6.922;2023-04-25T14:43:46;7.30;;;1.13;;
53253;SDS011;39148;53.332;6.922;2023-04-25T14:46:12;6.97;;;1.52;;